22 de mayo de 2022

Hora Código Tiempo Temp. Visibilidad Nubes Viento METAR/SPECI
10:00
V
21 °C 10 km+ - 040°   040° 5 kt METAR LFST 220800Z AUTO 04005KT 350V080 CAVOK 21/10 Q1016 NOSIG
09:30
V
21 °C 10 km+ - 030°   030° 3 kt METAR LFST 220730Z AUTO 03003KT 350V090 CAVOK 21/11 Q1017 NOSIG
09:00
V
20 °C 10 km+ - Var   Var 3 kt METAR LFST 220700Z AUTO VRB03KT CAVOK 20/10 Q1017 NOSIG
08:30
V
18 °C 10 km+ - Var   Var 2 kt METAR LFST 220630Z AUTO VRB02KT CAVOK 18/10 Q1017 NOSIG
08:00
V
16 °C 10 km+ - Var   000° 0 kt METAR LFST 220600Z AUTO 00000KT CAVOK 16/10 Q1017 NOSIG
07:30
V
15 °C 10 km+ - 200°   200° 2 kt METAR LFST 220530Z AUTO 20002KT CAVOK 15/10 Q1017 NOSIG
07:00
V
14 °C 10 km+ - 240°   240° 1 kt METAR LFST 220500Z AUTO 24001KT CAVOK 14/10 Q1017 NOSIG
06:30
V
12 °C 10 km+ - 240°   240° 1 kt METAR LFST 220430Z AUTO 24001KT CAVOK 12/10 Q1017 NOSIG
06:00
V
11 °C 10 km+ - 210°   210° 1 kt METAR LFST 220400Z AUTO 21001KT CAVOK 11/09 Q1017 NOSIG
05:30
V
11 °C 10 km+ - Var   000° 0 kt METAR LFST 220330Z AUTO 00000KT CAVOK 11/09 Q1018 NOSIG
05:00
V
11 °C 10 km+ - Var   000° 0 kt METAR LFST 220300Z AUTO 00000KT CAVOK 11/09 Q1018 NOSIG
04:30
V
12 °C 10 km+ - 320°   320° 1 kt METAR LFST 220230Z AUTO 32001KT CAVOK 12/09 Q1018 NOSIG
04:00
V
12 °C 10 km+ - 140°   140° 2 kt METAR LFST 220200Z AUTO 14002KT CAVOK 12/09 Q1018 NOSIG
03:30
V
11 °C 10 km+ - Var   000° 0 kt METAR LFST 220130Z AUTO 00000KT CAVOK 11/09 Q1018 NOSIG
03:00
V
12 °C 10 km+ - 330°   330° 2 kt METAR LFST 220100Z AUTO 33002KT CAVOK 12/09 Q1018 NOSIG
02:30
V
13 °C 10 km+ - 280°   280° 2 kt METAR LFST 220030Z AUTO 28002KT CAVOK 13/09 Q1018 NOSIG
02:00
V
13 °C 10 km+ - 360°   360° 1 kt METAR LFST 220000Z AUTO 36001KT CAVOK 13/09 Q1019 NOSIG
01:30
V
14 °C 10 km+ - 260°   260° 2 kt METAR LFST 212330Z AUTO 26002KT CAVOK 14/09 Q1019 NOSIG
01:00
V
13 °C 10 km+ - Var   Var 1 kt METAR LFST 212300Z AUTO VRB01KT CAVOK 13/08 Q1019 NOSIG
00:30
V
14 °C 10 km+ - 300°   300° 2 kt METAR LFST 212230Z AUTO 30002KT CAVOK 14/09 Q1019 NOSIG
00:00
V
15 °C 10 km+ - Var   Var 2 kt METAR LFST 212200Z AUTO VRB02KT CAVOK 15/09 Q1020 NOSIG

21 de mayo de 2022

Hora Código Tiempo Temp. Visibilidad Nubes Viento METAR/SPECI
23:30
V
16 °C 10 km+ - 350°   350° 2 kt METAR LFST 212130Z AUTO 35002KT CAVOK 16/09 Q1020 NOSIG
23:00
V
17 °C 10 km+ - 010°   010° 2 kt METAR LFST 212100Z AUTO 01002KT CAVOK 17/09 Q1020 NOSIG
22:30
V
18 °C 10 km+ - 050°   050° 3 kt METAR LFST 212030Z AUTO 05003KT CAVOK 18/09 Q1020 NOSIG
22:00
V
19 °C 10 km+ - 040°   040° 4 kt METAR LFST 212000Z AUTO 04004KT CAVOK 19/09 Q1020 NOSIG
21:30
V
19 °C 10 km+ - 040°   040° 6 kt METAR LFST 211930Z AUTO 04006KT CAVOK 19/08 Q1019 NOSIG
21:00
V
20 °C 10 km+ - 040°   040° 8 kt METAR LFST 211900Z AUTO 04008KT CAVOK 20/09 Q1019 NOSIG
20:30
V
22 °C 10 km+ - 030°   030° 6 kt METAR LFST 211830Z AUTO 03006KT CAVOK 22/09 Q1019 NOSIG
20:00
V
22 °C 10 km+ - 010°   010° 10 kt METAR LFST 211800Z AUTO 01010KT CAVOK 22/08 Q1019 NOSIG
19:30
V
23 °C 10 km+ - 360°   360° 9 kt METAR LFST 211730Z AUTO 36009KT CAVOK 23/09 Q1019 NOSIG
19:00
V
24 °C 10 km+ - 360°   360° 10 kt METAR LFST 211700Z AUTO 36010KT CAVOK 24/08 Q1020 NOSIG
18:30
V
24 °C 10 km+ - 360°   360° 8 kt METAR LFST 211630Z AUTO 36008KT CAVOK 24/08 Q1020 NOSIG
18:00
V
25 °C 10 km+ - 020°   020° 8 kt METAR LFST 211600Z AUTO 02008KT CAVOK 25/08 Q1020 NOSIG
17:30
V
24 °C 10 km+ - 050°   050° 9 kt METAR LFST 211530Z AUTO 05009KT 020V090 CAVOK 24/08 Q1021 NOSIG
17:00
V
25 °C 10 km+ - 020°   020° 7 kt METAR LFST 211500Z AUTO 02007KT 310V070 CAVOK 25/08 Q1021 NOSIG
16:30
V
25 °C 10 km+ - Var   Var 4 kt METAR LFST 211430Z AUTO VRB04KT CAVOK 25/08 Q1021 NOSIG
16:00
V
24 °C 10 km+ - 060°   060° 7 kt METAR LFST 211400Z AUTO 06007KT 340V100 CAVOK 24/08 Q1022 NOSIG
15:30
V
24 °C 10 km+ - 010°   010° 5 kt METAR LFST 211330Z AUTO 01005KT 300V060 CAVOK 24/09 Q1022 NOSIG
15:00
V
24 °C 10 km+ - 020°   020° 7 kt METAR LFST 211300Z AUTO 02007KT 320V070 CAVOK 24/08 Q1022 NOSIG
14:30
V
24 °C 10 km+ - 360°   360° 9 kt METAR LFST 211230Z AUTO 36009KT 280V060 CAVOK 24/08 Q1022 NOSIG
14:00
V
22 °C 10 km+ - 010°   010° 8 kt METAR LFST 211200Z AUTO 01008KT 310V050 CAVOK 22/08 Q1023 NOSIG
13:30
V
23 °C 10 km+ - Var   Var 3 kt METAR LFST 211130Z AUTO VRB03KT CAVOK 23/08 Q1023 NOSIG
13:00
V
22 °C 10 km+ - 360°   360° 6 kt METAR LFST 211100Z AUTO 36006KT 310V050 CAVOK 22/08 Q1023 NOSIG
12:30
V
22 °C 10 km+ - 300°   300° 5 kt METAR LFST 211030Z AUTO 30005KT 240V040 CAVOK 22/08 Q1023 NOSIG
12:00
V
21 °C 10 km+ - 330°   330° 7 kt METAR LFST 211000Z AUTO 33007KT 280V010 CAVOK 21/09 Q1023 NOSIG
11:30
V
21 °C 10 km+ - 330°   330° 7 kt METAR LFST 210930Z AUTO 33007KT 290V030 CAVOK 21/08 Q1024 NOSIG
11:00
V
20 °C 10 km+ - 260°   260° 6 kt METAR LFST 210900Z AUTO 26006KT 230V310 CAVOK 20/09 Q1024 NOSIG
10:30
V
20 °C 10 km+ - 320°   320° 4 kt METAR LFST 210830Z AUTO 32004KT 260V040 CAVOK 20/08 Q1024 NOSIG
10:00
V
20 °C 10 km+ - 270°   270° 4 kt METAR LFST 210800Z AUTO 27004KT 170V340 CAVOK 20/08 Q1024 NOSIG
09:30
V
19 °C 10 km+ - Var   Var 2 kt METAR LFST 210730Z AUTO VRB02KT CAVOK 19/07 Q1024 NOSIG
09:00
V
18 °C 10 km+ - Var   Var 3 kt METAR LFST 210700Z AUTO VRB03KT CAVOK 18/07 Q1024 NOSIG
08:30
V
17 °C 10 km+ - 320°   320° 3 kt METAR LFST 210630Z AUTO 32003KT 280V040 CAVOK 17/08 Q1024 NOSIG
08:00
V
17 °C 10 km+ - 310°   310° 4 kt METAR LFST 210600Z AUTO 31004KT CAVOK 17/09 Q1025 NOSIG
07:30
V
15 °C 10 km+ - 290°   290° 3 kt METAR LFST 210530Z AUTO 29003KT 260V320 CAVOK 15/09 Q1025 NOSIG
07:00
V
15 °C 10 km+ - Var   Var 2 kt METAR LFST 210500Z AUTO VRB02KT CAVOK 15/09 Q1024 NOSIG
06:30
V
13 °C 10 km+ - 290°   290° 3 kt METAR LFST 210430Z AUTO 29003KT 240V340 CAVOK 13/10 Q1024 NOSIG
06:00
V
12 °C 10 km+ - 290°   290° 6 kt METAR LFST 210400Z AUTO 29006KT CAVOK 12/10 Q1024 NOSIG
05:30
V
12 °C 10 km+ - 310°   310° 5 kt METAR LFST 210330Z AUTO 31005KT CAVOK 12/09 Q1024 NOSIG
05:00
V
13 °C 10 km+ - 310°   310° 5 kt METAR LFST 210300Z AUTO 31005KT CAVOK 13/10 Q1024 NOSIG
04:30
V
13 °C 10 km+ - 290°   290° 4 kt METAR LFST 210230Z AUTO 29004KT CAVOK 13/09 Q1024 NOSIG
04:00
V
14 °C 10 km+ - 300°   300° 5 kt METAR LFST 210200Z AUTO 30005KT 270V330 CAVOK 14/09 Q1024 NOSIG
03:30
V
15 °C 10 km+ - 280°   280° 7 kt METAR LFST 210130Z AUTO 28007KT CAVOK 15/09 Q1023 NOSIG
03:00
V
16 °C 10 km+ - 290°   290° 8 kt METAR LFST 210100Z AUTO 29008KT CAVOK 16/10 Q1023 NOSIG
02:30
V
16 °C 10 km+ - 290°   290° 10 kt METAR LFST 210030Z AUTO 29010KT CAVOK 16/11 Q1023 NOSIG
02:00
V
17 °C 10 km+ - 310°   310° 9 kt METAR LFST 210000Z AUTO 31009KT 9999 FEW032 17/12 Q1023 NOSIG
01:30
V
18 °C 10 km+ 12.000 ft 310°   310° 8 kt METAR LFST 202330Z AUTO 31008KT 9999 FEW035 SCT054 OVC120 18/12 Q1023 NOSIG
01:00
V
19 °C 10 km+ 12.000 ft 290°   290° 5 kt METAR LFST 202300Z AUTO 29005KT 230V340 9999 FEW054 OVC120 19/13 Q1022 TEMPO 30015G25KT
00:30
V
19 °C 10 km+ - 290°   290° 10 kt METAR LFST 202230Z AUTO 29010KT CAVOK 19/13 Q1022 TEMPO 30015G25KT
00:00
V
19 °C 10 km+ 13.000 ft 300°   300° 12 kt METAR LFST 202200Z AUTO 30012KT 9999 FEW052 BKN130 19/13 Q1021 TEMPO 30015G25KT

20 de mayo de 2022

Hora Código Tiempo Temp. Visibilidad Nubes Viento METAR/SPECI
23:30
V
20 °C 10 km+ 8.000 ft 300°   300° 13 kt METAR LFST 202130Z AUTO 30013KT 9999 FEW040 SCT050 BKN080 20/13 Q1021 TEMPO 30015G25KT
23:00
V
20 °C 10 km+ 4.500 ft 310°   310° 19 kt METAR LFST 202100Z AUTO 31019KT 9999 SCT038/// BKN045/// BKN056/// ///CB 20/15 Q1021 TEMPO 30015G25KT BECMG NSC
22:30
V
20 °C 10 km+ 4.800 ft 300°   300° 14 kt METAR LFST 202030Z AUTO 30014KT 9999 -RA FEW034/// BKN048/// BKN082/// ///CB 20/16 Q1020 TEMPO 30015G25KT BECMG NSC
22:00
V
21 °C 10 km+ - 300°   300° 18 28 kt METAR LFST 202000Z AUTO 30018G28KT 9999 TS //////CB 21/16 Q1019 TEMPO 2000 +TSRA BECMG NSC
21:30
V
22 °C 10 km+ - 300°   300° 18 kt METAR LFST 201930Z AUTO 30018KT 9999 VCTS ///CB 22/16 Q1018 TEMPO 30015G25KT 2000 +TSRA BECMG NSC
21:00
V
23 °C 10 km+ - 310°   310° 23 kt METAR LFST 201900Z AUTO 31023KT 9999 VCTS ///CB 23/16 Q1017 TEMPO 30020G35KT 2000 +TSRA
20:30
V
29 °C 10 km+ - 250°   250° 21 kt METAR LFST 201830Z AUTO 25021KT 9999 ///CB 29/12 Q1016 TEMPO 30020G35KT 2000 +TSRA
20:00
V
29 °C 10 km+ - 250°   250° 22 33 kt METAR LFST 201800Z AUTO 25022G33KT 9999 FEW056 SCT150 29/11 Q1015 TEMPO 2000 +TSRA FEW020 BKN050CB
19:30
I
30 °C 4,4 km 14.000 ft 230°   230° 21 kt METAR LFST 201730Z AUTO 23021KT 9999 4400 FEW054 BKN140 BKN170 30/11 Q1015 TEMPO 24020G30KT 2000 TSRA SCT070CB
19:00
V
30 °C 10 km+ - 230°   230° 20 kt METAR LFST 201700Z AUTO 23020KT 9999 ///CB 30/11 Q1015 TEMPO 32020G35KT 1200 TSRA
18:30
V
31 °C 10 km+ - 230°   230° 17 kt METAR LFST 201630Z AUTO 23017KT CAVOK 31/11 Q1015 TEMPO 32020G35KT 1200 TSRA SCT070CB
18:00
V
32 °C 10 km+ 13.000 ft 210°   210° 13 kt METAR LFST 201600Z AUTO 21013KT 180V240 9999 FEW048/// BKN130/// ///TCU 32/12 Q1015 TEMPO 32020G35KT 1200 TSRA SCT070CB
17:30
V
30 °C 10 km+ - 190°   190° 5 kt METAR LFST 201530Z AUTO 19005KT 160V220 9999 ///CB 30/13 Q1016 TEMPO 32020G35KT 1200 TSRA
17:00
V
29 °C 10 km+ - 230°   230° 5 kt METAR LFST 201500Z AUTO 23005KT 190V270 9999 //////TCU 29/13 Q1016 TEMPO SHRA FEW090CB BECMG 24015G25KT
16:30
V
30 °C 10 km+ - 300°   300° 13 kt METAR LFST 201430Z AUTO 30013KT 9999 ///TCU 30/13 Q1016 TEMPO SHRA FEW090CB BECMG 24015G25KT
16:00
V
32 °C 10 km+ 10.000 ft 260°   260° 17 kt METAR LFST 201400Z AUTO 26017KT 240V300 9999 FEW048/// BKN100/// OVC150/// ///CB 32/09 Q1016 TEMPO 3000 TSRA BECMG 24015G25KT
15:30
V
33 °C 10 km+ - 190°   190° 10 kt METAR LFST 201330Z AUTO 19010KT 150V220 9999 ///TCU 33/11 Q1015 TEMPO 3000 TSRA FEW090CB BECMG 24015G25KT
15:00
V
34 °C 10 km+ - 190°   190° 11 kt METAR LFST 201300Z AUTO 19011KT CAVOK 34/12 Q1015 TEMPO 26020G30KT 3000 TSRA SCT080CB
14:30
V
33 °C 10 km+ - 180°   180° 10 kt METAR LFST 201230Z AUTO 18010KT 140V210 CAVOK 33/11 Q1016 TEMPO 26020G30KT 3000 TSRA SCT080CB
14:00
V
33 °C 10 km+ - 180°   180° 9 kt METAR LFST 201200Z AUTO 18009KT 140V230 CAVOK 33/12 Q1016 TEMPO 26020G30KT 3000 TSRA SCT080CB
13:30
V
32 °C 10 km+ - 200°   200° 5 kt METAR LFST 201130Z AUTO 20005KT 150V260 CAVOK 32/13 Q1017 NOSIG
13:00
V
31 °C 10 km+ - 210°   210° 7 kt METAR LFST 201100Z AUTO 21007KT 180V240 CAVOK 31/13 Q1018 NOSIG
12:30
V
30 °C 10 km+ - 180°   180° 9 kt METAR LFST 201030Z AUTO 18009KT 130V230 CAVOK 30/11 Q1018 NOSIG
12:00
V
31 °C 10 km+ - 210°   210° 13 kt METAR LFST 201000Z AUTO 21013KT 140V280 CAVOK 31/11 Q1019 TEMPO 30018G30KT 2500 TSRA SCT080CB BKN100
11:30
V
30 °C 10 km+ - 190°   190° 10 kt METAR LFST 200930Z AUTO 19010KT 150V220 CAVOK 30/13 Q1020 TEMPO 30018G30KT 2500 TSRA SCT080CB BKN100
11:00
V
30 °C 10 km+ - 200°   200° 9 kt METAR LFST 200900Z AUTO 20009KT 150V230 9999 FEW001 30/13 Q1020 TEMPO 30018G30KT 2500 TSRA SCT080CB BKN100
Datos más antiguos

Descarga nuestra aplicación

Acceso fácil a todo el tiempo de la aviación en tu teléfono móvil y tableta.
Con muchas funciones no disponibles en el sitio web, como la compatibilidad sin conexión y una lista personal de aeropuertos.

Nosotros y terceros seguimos tu comportamiento en Internet en nuestro sitio web con cookies. Si continúas, asumimos que estás de acuerdo con nuestra política de cookies. Más información